Elmore, Vermont
Current Conditions -  °F | °C
As of 2:54 PM on Sunday 25 Jan 2015 (Local Time) from KMVL Reporting Station
Unknown Precip Unknown Precip  
Wind Chill: -2°   Ceiling: Unl
Heat Index: 12°   Visibility: 10mi
Dew Point: -1°   Wind: 12mph
Humidity: 56%   Direction: 350°N
Pressure: 29.8"   Gusts: NA
Location:  44.5407°N, 72.5287°W
Report Text: KMVL 251954Z AUTO 35010KT 10SM UP FEW027 M11/M18 A2980 RMK AO2 UPB12E24B29 SLP106 P0000 T11111183 TSNO
Loading
Personal Weather Stations






























Interactive Weather Map New forecast layout! Learn more

10-Day Weather Forecast

Advertisements
Track Severe Weather on mobile